Time;durP1;ratioP1;P1;durP2;ratioP2;P2;SDS_P1;SDS_P2;PMS_P1;PMS_P2;Temp;Humidity;BMP_temperature;BMP_pressure;BME280_temperature;BME280_humidity;BME280_pressure;Samples;Min_cycle;Max_cycle;Signal;HPM_P1;HPM_P2
2021/10/12 00:01:13;;;;;;;21.40;15.27;;;;;;;5.42;100.00;98679.09;4978657;28;20206;-73
2021/10/12 00:03:41;;;;;;;19.60;14.07;;;;;;;5.41;100.00;98674.81;4972828;28;20411;-73
2021/10/12 00:06:09;;;;;;;18.43;14.17;;;;;;;5.43;100.00;98679.97;4942693;28;20213;-72
2021/10/12 00:08:39;;;;;;;19.57;14.53;;;;;;;5.46;100.00;98682.34;4966635;28;20234;-72
2021/10/12 00:11:07;;;;;;;19.27;14.87;;;;;;;5.44;100.00;98682.47;4968614;28;20214;-73
2021/10/12 00:13:35;;;;;;;19.07;14.87;;;;;;;5.43;100.00;98675.53;4961637;28;20264;-73
2021/10/12 00:16:05;;;;;;;19.87;15.17;;;;;;;5.45;100.00;98678.06;4972549;28;20209;-74
2021/10/12 00:18:33;;;;;;;18.27;15.20;;;;;;;5.47;100.00;98679.59;4975785;28;20709;-73
2021/10/12 00:21:02;;;;;;;17.97;13.97;;;;;;;5.52;100.00;98681.06;4945387;28;20224;-75
2021/10/12 00:23:30;;;;;;;19.00;14.43;;;;;;;5.54;100.00;98684.44;4972177;28;20242;-74
2021/10/12 00:25:58;;;;;;;18.43;14.97;;;;;;;5.56;100.00;98679.88;4976103;28;20244;-73
2021/10/12 00:28:26;;;;;;;17.23;14.43;;;;;;;5.64;100.00;98673.06;4975333;28;20503;-73
2021/10/12 00:30:54;;;;;;;18.17;14.40;;;;;;;5.61;100.00;98677.75;4965956;28;20209;-74
2021/10/12 00:33:24;;;;;;;16.43;14.63;;;;;;;5.53;100.00;98672.22;4970929;28;20225;-74
2021/10/12 00:35:52;;;;;;;16.30;14.57;;;;;;;5.55;100.00;98665.06;4976645;28;20210;-73
2021/10/12 00:38:22;;;;;;;18.90;13.07;;;;;;;5.61;100.00;98670.69;4945171;28;20248;-73
2021/10/12 00:40:50;;;;;;;20.23;15.33;;;;;;;5.58;100.00;98670.09;4972185;28;20602;-73
2021/10/12 00:43:25;;;;;;;17.63;14.73;;;;;;;5.54;100.00;98663.38;4975649;28;20287;-73
2021/10/12 00:45:54;;;;;;;20.23;15.20;;;;;;;5.52;100.00;98660.03;4965072;28;20208;-73
2021/10/12 00:48:24;;;;;;;20.67;15.40;;;;;;;5.49;100.00;98654.06;4973746;28;20346;-74
2021/10/12 00:50:52;;;;;;;21.17;15.03;;;;;;;5.47;100.00;98644.59;4977009;28;20470;-74
2021/10/12 00:53:20;;;;;;;19.93;15.03;;;;;;;5.48;100.00;98644.47;4946073;28;20445;-74
2021/10/12 00:55:49;;;;;;;17.20;14.90;;;;;;;5.46;100.00;98641.13;4973189;28;20348;-73
2021/10/12 00:58:17;;;;;;;18.70;15.43;;;;;;;5.46;100.00;98633.22;4973284;28;20453;-75
2021/10/12 01:00:45;;;;;;;18.10;15.53;;;;;;;5.52;100.00;98637.19;4962237;28;20328;-74
2021/10/12 01:03:13;;;;;;;18.47;15.23;;;;;;;5.54;100.00;98627.41;4963176;28;20647;-71
2021/10/12 01:05:44;;;;;;;16.17;13.87;;;;;;;5.47;100.00;98624.38;4976708;28;20310;-74
2021/10/12 01:08:12;;;;;;;16.63;13.43;;;;;;;5.44;100.00;98624.63;4934942;28;20335;-73
2021/10/12 01:10:40;;;;;;;19.20;15.20;;;;;;;5.44;100.00;98622.00;4973815;28;20219;-74
2021/10/12 01:13:09;;;;;;;19.20;14.80;;;;;;;5.49;100.00;98638.28;4970884;28;20198;-74
2021/10/12 01:15:38;;;;;;;18.27;15.60;;;;;;;5.46;100.00;98627.16;4966532;28;20209;-74
2021/10/12 01:18:12;;;;;;;16.67;14.87;;;;;;;5.46;100.00;98621.91;4973430;28;20713;-71
2021/10/12 01:20:41;;;;;;;22.83;15.13;;;;;;;5.47;100.00;98619.13;4977992;28;20676;-75
2021/10/12 01:23:11;;;;;;;19.57;14.73;;;;;;;5.53;100.00;98623.09;4944300;28;20385;-74
2021/10/12 01:25:39;;;;;;;21.43;16.07;;;;;;;5.69;100.00;98619.31;4973721;28;20206;-74
2021/10/12 01:28:08;;;;;;;23.23;16.10;;;;;;;5.72;100.00;98616.44;4968437;28;20409;-74
2021/10/12 01:30:37;;;;;;;20.57;16.70;;;;;;;5.71;100.00;98612.16;4981893;28;20206;-73
2021/10/12 01:33:06;;;;;;;17.63;14.80;;;;;;;5.71;100.00;98606.88;4967569;28;20224;-73
2021/10/12 01:35:35;;;;;;;20.10;15.37;;;;;;;5.71;100.00;98609.50;4980303;28;20214;-73
2021/10/12 01:38:04;;;;;;;19.67;16.20;;;;;;;5.74;100.00;98604.84;4975645;28;20301;-74
2021/10/12 01:40:33;;;;;;;20.73;15.17;;;;;;;5.76;100.00;98610.00;4952996;28;20226;-74
2021/10/12 01:43:01;;;;;;;20.53;14.80;;;;;;;5.77;100.00;98604.59;4948562;28;20239;-73
2021/10/12 01:45:30;;;;;;;19.67;14.70;;;;;;;5.80;100.00;98603.53;4974505;28;20424;-75
2021/10/12 01:47:58;;;;;;;21.20;15.60;;;;;;;5.80;100.00;98603.53;4980615;28;20240;-74
2021/10/12 01:50:26;;;;;;;21.43;14.93;;;;;;;5.77;100.00;98599.34;4968443;28;20225;-73
2021/10/12 01:52:54;;;;;;;20.97;14.63;;;;;;;5.80;100.00;98593.03;4979207;28;20223;-74
2021/10/12 01:55:24;;;;;;;21.13;17.07;;;;;;;5.86;100.00;98594.31;4960627;28;21226;-73
2021/10/12 01:57:54;;;;;;;21.50;16.47;;;;;;;5.88;100.00;98588.00;4949993;28;20221;-74
2021/10/12 02:00:22;;;;;;;17.30;14.33;;;;;;;5.80;100.00;98582.50;4977660;28;20223;-73
2021/10/12 02:02:50;;;;;;;17.40;14.17;;;;;;;5.83;100.00;98586.66;4964767;28;20653;-74
2021/10/12 02:05:18;;;;;;;18.60;14.83;;;;;;;5.83;100.00;98589.28;4973557;28;20293;-73
2021/10/12 02:07:47;;;;;;;23.90;15.30;;;;;;;5.86;100.00;98587.28;4977397;28;20209;-73
2021/10/12 02:10:15;;;;;;;16.43;13.13;;;;;;;5.80;100.00;98582.50;4971532;28;20214;-73
2021/10/12 02:12:43;;;;;;;16.40;13.37;;;;;;;5.79;100.00;98576.38;4969503;28;20504;-74
2021/10/12 02:15:13;;;;;;;17.97;14.63;;;;;;;5.91;100.00;98571.97;4944547;28;20232;-74
2021/10/12 02:17:41;;;;;;;17.27;15.00;;;;;;;5.89;100.00;98566.00;4980010;28;20299;-74
2021/10/12 02:20:11;;;;;;;20.10;16.03;;;;;;;5.90;100.00;98562.41;4967936;28;20210;-74
2021/10/12 02:22:40;;;;;;;20.47;15.13;;;;;;;5.88;100.00;98563.50;4977249;28;20419;-74
2021/10/12 02:25:11;;;;;;;20.47;15.53;;;;;;;5.82;100.00;98561.31;4977708;28;20663;-74
2021/10/12 02:27:39;;;;;;;19.30;16.93;;;;;;;5.77;100.00;98559.88;4969675;28;20710;-74
2021/10/12 02:30:09;;;;;;;18.90;14.97;;;;;;;5.75;100.00;98559.19;4947300;28;20233;-76
2021/10/12 02:32:38;;;;;;;20.83;15.53;;;;;;;5.79;100.00;98555.34;4975890;28;20206;-74
2021/10/12 02:35:08;;;;;;;23.07;15.23;;;;;;;5.77;100.00;98551.19;4971535;28;20677;-73
2021/10/12 02:37:36;;;;;;;20.00;15.03;;;;;;;5.77;100.00;98549.38;4975175;28;20426;-75
2021/10/12 02:40:05;;;;;;;18.33;14.30;;;;;;;5.81;100.00;98547.34;4974369;28;20879;-74
2021/10/12 02:42:33;;;;;;;15.57;13.93;;;;;;;5.83;100.00;98540.16;4965475;28;20414;-74
2021/10/12 02:45:01;;;;;;;22.10;14.50;;;;;;;5.79;100.00;98531.69;4943517;28;20329;-74
2021/10/12 02:47:32;;;;;;;16.17;14.00;;;;;;;5.78;100.00;98532.63;4974699;28;20706;-75
2021/10/12 02:50:02;;;;;;;14.50;11.97;;;;;;;5.76;100.00;98528.47;4980666;28;20233;-73
2021/10/12 02:52:30;;;;;;;16.07;13.77;;;;;;;5.74;100.00;98531.19;4978090;28;20284;-72
2021/10/12 02:54:58;;;;;;;18.00;13.17;;;;;;;5.74;100.00;98535.63;4978235;28;20241;-73
2021/10/12 02:57:26;;;;;;;17.03;13.70;;;;;;;5.76;100.00;98523.19;4966235;28;20225;-72
2021/10/12 02:59:55;;;;;;;15.07;13.47;;;;;;;5.72;100.00;98519.16;4975948;28;20221;-73
2021/10/12 03:02:23;;;;;;;18.63;15.70;;;;;;;5.74;100.00;98511.97;4944183;28;20680;-72
2021/10/12 03:04:51;;;;;;;17.40;15.43;;;;;;;5.80;100.00;98509.69;4979840;28;20235;-73
2021/10/12 03:07:21;;;;;;;15.87;14.07;;;;;;;5.85;100.00;98508.47;4972179;28;20514;-72
2021/10/12 03:09:49;;;;;;;19.73;15.10;;;;;;;5.93;100.00;98495.56;4977824;28;20225;-74
2021/10/12 03:12:17;;;;;;;20.23;16.47;;;;;;;6.14;100.00;98502.72;4972484;28;20222;-75
2021/10/12 03:14:46;;;;;;;20.47;14.30;;;;;;;6.10;100.00;98498.66;4978378;28;20367;-71
2021/10/12 03:17:14;;;;;;;17.20;13.37;;;;;;;6.10;100.00;98498.66;4926243;28;20221;-74
2021/10/12 03:19:42;;;;;;;19.57;14.90;;;;;;;6.12;100.00;98494.97;4982057;28;20209;-72
2021/10/12 03:22:11;;;;;;;20.70;16.47;;;;;;;6.15;100.00;98496.50;4972173;28;20578;-74
2021/10/12 03:24:41;;;;;;;25.07;17.90;;;;;;;6.22;100.00;98488.00;4973786;28;20229;-76
2021/10/12 03:27:10;;;;;;;23.57;15.57;;;;;;;6.29;100.00;98480.44;4964385;28;20604;-73
2021/10/12 03:29:39;;;;;;;21.73;15.33;;;;;;;6.30;100.00;98482.13;4954907;28;20233;-72
2021/10/12 03:32:07;;;;;;;28.90;18.33;;;;;;;6.36;100.00;98478.13;4939287;28;20300;-72
2021/10/12 03:34:36;;;;;;;23.30;19.07;;;;;;;6.39;100.00;98479.69;4938305;28;20240;-72
2021/10/12 03:37:04;;;;;;;25.67;18.50;;;;;;;6.53;100.00;98476.75;4975143;28;20221;-75
2021/10/12 03:39:33;;;;;;;24.37;18.17;;;;;;;6.51;100.00;98473.41;4952458;28;20217;-72
2021/10/12 03:42:03;;;;;;;20.80;16.20;;;;;;;6.62;100.00;98470.72;4974736;28;20214;-71
2021/10/12 03:44:31;;;;;;;24.57;17.83;;;;;;;6.68;100.00;98479.09;4958216;28;20738;-72
2021/10/12 03:46:59;;;;;;;24.10;17.33;;;;;;;6.72;100.00;98483.97;4934889;28;20329;-72
2021/10/12 03:49:28;;;;;;;21.07;16.10;;;;;;;6.82;100.00;98476.13;4934656;28;20795;-75
2021/10/12 03:51:56;;;;;;;19.00;15.27;;;;;;;6.81;100.00;98472.66;4957430;28;20220;-72
2021/10/12 03:54:24;;;;;;;22.03;17.27;;;;;;;7.07;100.00;98469.63;4971652;28;20782;-73
2021/10/12 03:56:52;;;;;;;23.30;17.57;;;;;;;7.07;100.00;98464.38;4952360;28;20213;-72
2021/10/12 03:59:22;;;;;;;22.53;16.00;;;;;;;7.15;100.00;98462.88;4974906;28;20235;-73
2021/10/12 04:01:50;;;;;;;23.30;17.70;;;;;;;7.14;100.00;98461.22;4967731;28;20213;-71
2021/10/12 04:04:18;;;;;;;19.70;14.77;;;;;;;7.10;100.00;98455.38;4971805;28;20228;-73
2021/10/12 04:06:46;;;;;;;19.97;16.73;;;;;;;6.95;100.00;98452.25;4940071;28;20248;-73
2021/10/12 04:09:15;;;;;;;24.47;17.97;;;;;;;7.05;100.00;98453.13;4971434;28;20891;-73
2021/10/12 04:11:43;;;;;;;23.50;17.40;;;;;;;7.08;100.00;98444.94;4974660;28;20205;-67
2021/10/12 04:14:11;;;;;;;23.80;18.63;;;;;;;7.11;100.00;98451.78;4971881;28;20798;-70
2021/10/12 04:16:44;;;;;;;23.70;18.73;;;;;;;7.08;100.00;98441.50;4970741;28;20210;-67
2021/10/12 04:19:12;;;;;;;30.00;19.00;;;;;;;7.04;100.00;98445.38;4962475;28;20431;-70
2021/10/12 04:21:41;;;;;;;22.17;16.70;;;;;;;6.98;100.00;98444.06;4938251;28;20209;-68
2021/10/12 04:24:09;;;;;;;21.63;17.00;;;;;;;6.97;100.00;98445.03;4971465;28;20221;-70
2021/10/12 04:26:39;;;;;;;21.27;16.60;;;;;;;7.06;100.00;98448.69;4965431;28;20213;-70
2021/10/12 04:29:08;;;;;;;20.23;17.50;;;;;;;7.13;100.00;98441.09;4969568;28;20260;-70
2021/10/12 04:31:37;;;;;;;25.03;19.03;;;;;;;7.03;100.00;98441.06;4974156;28;20239;-70
2021/10/12 04:34:09;;;;;;;21.17;17.17;;;;;;;7.12;100.00;98440.25;4945015;28;20226;-72
2021/10/12 04:36:40;;;;;;;23.03;17.53;;;;;;;7.03;100.00;98443.69;4948596;28;20688;-73
2021/10/12 04:39:09;;;;;;;21.57;16.73;;;;;;;7.18;100.00;98437.09;4963188;28;20303;-72
2021/10/12 04:41:38;;;;;;;25.57;17.47;;;;;;;7.26;100.00;98438.25;4966268;28;20201;-73
2021/10/12 04:44:09;;;;;;;24.50;17.47;;;;;;;7.25;100.00;98437.41;4968455;28;20244;-71
2021/10/12 04:46:39;;;;;;;25.47;17.93;;;;;;;7.23;100.00;98434.91;4970616;28;20209;-75
2021/10/12 04:49:09;;;;;;;18.00;15.33;;;;;;;7.06;100.00;98422.34;4958091;28;20323;-73
2021/10/12 04:51:38;;;;;;;19.10;14.87;;;;;;;7.07;100.00;98439.81;4954960;28;20225;-72
2021/10/12 04:54:06;;;;;;;21.03;15.87;;;;;;;7.11;100.00;98433.31;4928814;28;20686;-75
2021/10/12 04:56:34;;;;;;;17.20;15.17;;;;;;;7.04;100.00;98427.72;4965968;28;20491;-74
2021/10/12 04:59:03;;;;;;;23.03;17.90;;;;;;;7.01;100.00;98429.78;4966900;28;20300;-74
2021/10/12 05:01:31;;;;;;;20.83;15.73;;;;;;;7.08;100.00;98426.50;4970996;28;20237;-70
2021/10/12 05:04:05;;;;;;;24.73;18.50;;;;;;;7.20;100.00;98426.44;4964933;28;20248;-69
2021/10/12 05:06:35;;;;;;;24.97;17.23;;;;;;;7.18;100.00;98426.56;4964300;28;20295;-73
2021/10/12 05:09:03;;;;;;;26.57;17.90;;;;;;;7.46;100.00;98418.06;4946178;28;20810;-72
2021/10/12 05:11:31;;;;;;;30.60;17.93;;;;;;;7.44;100.00;98417.34;4970536;28;20229;-73
2021/10/12 05:13:59;;;;;;;22.47;16.87;;;;;;;7.38;100.00;98418.72;4973572;28;20730;-74
2021/10/12 05:16:29;;;;;;;24.73;17.17;;;;;;;7.24;100.00;98419.94;4973623;28;20206;-74
2021/10/12 05:18:58;;;;;;;19.93;17.10;;;;;;;7.18;100.00;98415.16;4962589;28;20327;-72
2021/10/12 05:21:27;;;;;;;22.03;15.73;;;;;;;7.28;100.00;98417.84;4977310;28;20226;-71
2021/10/12 05:23:56;;;;;;;22.57;17.50;;;;;;;7.13;100.00;98407.66;4967542;28;20440;-70
2021/10/12 05:26:25;;;;;;;23.87;16.40;;;;;;;7.10;100.00;98419.28;4945520;28;20233;-72
2021/10/12 05:28:53;;;;;;;23.37;16.47;;;;;;;7.09;100.00;98416.81;4972866;28;20225;-73
2021/10/12 05:31:22;;;;;;;23.53;16.50;;;;;;;7.28;100.00;98423.13;4974275;28;20230;-72
2021/10/12 05:33:51;;;;;;;23.83;17.00;;;;;;;7.33;100.00;98413.00;4963542;28;20378;-75
2021/10/12 05:36:19;;;;;;;19.50;15.67;;;;;;;7.24;100.00;98417.28;4975424;28;20206;-72
2021/10/12 05:38:48;;;;;;;22.77;16.87;;;;;;;7.32;100.00;98416.63;4970347;28;20213;-73
2021/10/12 05:41:17;;;;;;;22.13;16.23;;;;;;;7.34;100.00;98412.88;4931511;28;20249;-72
2021/10/12 05:43:46;;;;;;;24.23;17.87;;;;;;;7.16;100.00;98417.94;4972300;28;20759;-73
2021/10/12 05:46:15;;;;;;;23.23;17.10;;;;;;;7.28;100.00;98417.84;4969194;28;20209;-73
2021/10/12 05:48:44;;;;;;;24.37;17.80;;;;;;;7.13;100.00;98418.22;4974781;28;20873;-73
2021/10/12 05:51:16;;;;;;;22.07;16.57;;;;;;;7.09;100.00;98416.81;4966053;28;20226;-73
2021/10/12 05:53:46;;;;;;;21.83;16.43;;;;;;;7.09;100.00;98415.00;4973671;28;20245;-72
2021/10/12 05:56:16;;;;;;;28.77;17.87;;;;;;;7.23;100.00;98428.81;4946539;28;20209;-74
2021/10/12 05:58:48;;;;;;;23.73;17.03;;;;;;;7.12;100.00;98421.81;4973118;28;20296;-71
2021/10/12 06:01:17;;;;;;;28.37;16.80;;;;;;;7.16;100.00;98417.94;4968845;28;20217;-72
2021/10/12 06:03:46;;;;;;;22.57;18.07;;;;;;;7.07;100.00;98416.94;4967736;28;20238;-68
2021/10/12 06:06:14;;;;;;;22.50;18.03;;;;;;;7.10;100.00;98421.13;4967973;28;20607;-71
2021/10/12 06:08:43;;;;;;;28.03;19.20;;;;;;;7.16;100.00;98419.72;4963412;28;20408;-71
2021/10/12 06:11:12;;;;;;;22.67;18.97;;;;;;;7.31;100.00;98422.84;4973979;28;20261;-72
2021/10/12 06:13:41;;;;;;;26.20;16.77;;;;;;;7.24;100.00;98425.22;4942101;28;20706;-73
2021/10/12 06:16:11;;;;;;;19.60;16.13;;;;;;;7.29;100.00;98423.00;4973374;28;20736;-70
2021/10/12 06:18:39;;;;;;;25.90;17.17;;;;;;;7.30;100.00;98416.75;4977495;28;20201;-75
2021/10/12 06:21:07;;;;;;;24.87;17.37;;;;;;;7.30;100.00;98427.31;4972400;28;20221;-71
2021/10/12 06:23:35;;;;;;;27.37;16.77;;;;;;;7.23;100.00;98426.19;4965349;28;20855;-72
2021/10/12 06:26:03;;;;;;;28.50;19.43;;;;;;;7.35;100.00;98421.63;4977143;28;20214;-75
2021/10/12 06:28:32;;;;;;;77.10;69.67;;;;;;;7.31;100.00;98421.06;4948724;28;20357;-72
2021/10/12 06:31:00;;;;;;;23.93;18.63;;;;;;;7.23;100.00;98424.34;4975135;28;20217;-74
2021/10/12 06:33:29;;;;;;;25.00;21.53;;;;;;;7.19;100.00;98425.59;4973509;28;20642;-71
2021/10/12 06:35:58;;;;;;;17.77;15.77;;;;;;;7.13;100.00;98425.28;4977377;28;20667;-75
2021/10/12 06:38:26;;;;;;;22.77;16.33;;;;;;;7.23;100.00;98434.09;4965139;28;20495;-73
2021/10/12 06:40:54;;;;;;;27.73;19.43;;;;;;;7.35;100.00;98434.81;4978414;28;20220;-71
2021/10/12 06:43:22;;;;;;;19.00;15.93;;;;;;;7.17;100.00;98435.44;4941404;28;20737;-72
2021/10/12 06:45:50;;;;;;;23.60;16.37;;;;;;;7.24;100.00;98435.75;4971675;28;20210;-73
2021/10/12 06:48:19;;;;;;;21.33;18.37;;;;;;;7.14;100.00;98442.75;4973332;28;20214;-73
2021/10/12 06:50:48;;;;;;;19.67;15.37;;;;;;;7.16;100.00;98438.19;4973289;28;20237;-72
2021/10/12 06:53:38;;;;;;;22.63;15.90;;;;;;;7.18;100.00;98447.66;4962786;28;20758;-76
2021/10/12 06:56:06;;;;;;;19.57;13.73;;;;;;;7.08;100.00;98433.59;4974691;28;20300;-73
2021/10/12 06:58:35;;;;;;;14.30;12.83;;;;;;;7.07;100.00;98439.81;4940984;28;21144;-71
2021/10/12 07:01:20;;;;;;;18.37;12.70;;;;;;;6.93;100.00;98441.81;4970415;28;20928;-70
2021/10/12 07:03:48;;;;;;;15.07;10.57;;;;;;;6.91;100.00;98433.22;4975494;28;20244;-74
2021/10/12 07:06:19;;;;;;;11.03;9.67;;;;;;;6.84;100.00;98425.97;4971103;28;20879;-72
2021/10/12 07:08:47;;;;;;;13.87;10.53;;;;;;;6.89;100.00;98411.44;4965285;28;20206;-73
2021/10/12 07:11:16;;;;;;;11.20;10.03;;;;;;;6.81;100.00;98419.97;4974428;28;20316;-74
2021/10/12 07:13:46;;;;;;;14.13;10.20;;;;;;;6.84;100.00;98413.63;4971524;28;20728;-73
2021/10/12 07:16:15;;;;;;;14.30;10.33;;;;;;;6.93;100.00;98417.28;4939778;28;20225;-75
2021/10/12 07:18:44;;;;;;;11.60;10.30;;;;;;;6.93;100.00;98407.56;4965096;28;20218;-71
2021/10/12 07:21:12;;;;;;;12.17;10.87;;;;;;;6.98;100.00;98408.97;4966298;28;20214;-72
2021/10/12 07:23:41;;;;;;;14.50;11.13;;;;;;;7.15;100.00;98420.69;4973633;28;20233;-71
2021/10/12 07:26:10;;;;;;;16.80;11.87;;;;;;;7.06;100.00;98422.34;4964208;28;20290;-72
2021/10/12 07:28:38;;;;;;;12.30;11.00;;;;;;;7.09;100.00;98422.09;4975363;28;20202;-73
2021/10/12 07:31:06;;;;;;;15.77;12.03;;;;;;;7.24;100.00;98419.94;4937869;28;20229;-72
2021/10/12 07:33:34;;;;;;;14.00;11.97;;;;;;;7.31;100.00;98415.78;4972328;28;20863;-71
2021/10/12 07:36:03;;;;;;;18.00;12.87;;;;;;;7.48;100.00;98418.75;4974947;28;20893;-69
2021/10/12 07:38:31;;;;;;;15.23;12.33;;;;;;;7.65;100.00;98417.28;4974264;28;20277;-72
2021/10/12 07:41:01;;;;;;;16.67;12.40;;;;;;;7.54;100.00;98410.31;4965760;28;20241;-73
2021/10/12 07:43:34;;;;;;;14.03;11.60;;;;;;;7.52;100.00;98405.19;4971741;28;20254;-74
2021/10/12 07:46:03;;;;;;;16.03;12.03;;;;;;;7.44;100.00;98404.16;4943481;28;20676;-75
2021/10/12 07:48:31;;;;;;;14.33;12.53;;;;;;;7.44;100.00;98405.03;4971222;28;20221;-76
2021/10/12 07:51:00;;;;;;;15.50;11.73;;;;;;;7.41;100.00;98394.75;4974809;28;20202;-72
2021/10/12 07:53:29;;;;;;;14.40;12.90;;;;;;;7.56;100.00;98397.00;4968211;28;20430;-70
2021/10/12 07:55:59;;;;;;;15.60;12.67;;;;;;;7.57;100.00;98399.47;4974641;28;20221;-73
2021/10/12 07:58:28;;;;;;;15.03;13.40;;;;;;;7.60;100.00;98403.66;4960796;28;20343;-72
2021/10/12 08:00:57;;;;;;;13.23;11.83;;;;;;;7.59;100.00;98397.56;4974166;28;20201;-72
2021/10/12 08:03:25;;;;;;;13.03;10.47;;;;;;;7.58;100.00;98395.06;4934518;28;20245;-72
2021/10/12 08:05:53;;;;;;;14.50;10.90;;;;;;;7.73;100.00;98379.69;4951513;28;20296;-74
2021/10/12 08:08:22;;;;;;;11.63;10.53;;;;;;;7.72;100.00;98375.38;4976847;28;20539;-72
2021/10/12 08:10:50;;;;;;;12.50;10.70;;;;;;;7.92;100.00;98390.25;4967831;28;20216;-72
2021/10/12 08:13:20;;;;;;;14.90;11.93;;;;;;;7.92;100.00;98390.25;4965522;28;20261;-75
2021/10/12 08:15:52;;;;;;;15.57;11.47;;;;;;;7.94;100.00;98390.94;4967381;28;20411;-71
2021/10/12 08:18:20;;;;;;;10.57;9.53;;;;;;;8.21;100.00;98392.06;4971852;28;20216;-73
2021/10/12 08:20:49;;;;;;;11.77;10.10;;;;;;;8.27;100.00;98390.69;4930003;28;20218;-75
2021/10/12 08:23:17;;;;;;;10.93;9.87;;;;;;;8.10;100.00;98385.13;4973861;28;20251;-75
2021/10/12 08:25:45;;;;;;;11.20;9.27;;;;;;;8.45;100.00;98374.97;4969921;28;20217;-69
2021/10/12 08:28:13;;;;;;;9.90;8.20;;;;;;;8.38;100.00;98379.97;4974371;28;20222;-75
2021/10/12 08:30:41;;;;;;;9.00;8.10;;;;;;;8.28;100.00;98384.44;4970166;28;20206;-73
2021/10/12 08:33:11;;;;;;;10.73;7.47;;;;;;;8.25;100.00;98377.63;4967628;28;20690;-73
2021/10/12 08:35:39;;;;;;;7.97;7.23;;;;;;;8.22;100.00;98369.16;4932572;28;20752;-68
2021/10/12 08:38:27;;;;;;;10.30;6.77;;;;;;;8.34;100.00;98368.03;4972144;28;20201;-77
2021/10/12 08:40:57;;;;;;;8.27;7.50;;;;;;;8.30;100.00;98366.66;4978916;28;20653;-77
2021/10/12 08:43:25;;;;;;;7.80;7.00;;;;;;;8.16;100.00;98361.81;4976924;28;20242;-74
2021/10/12 08:45:54;;;;;;;10.77;8.27;;;;;;;8.28;100.00;98354.53;4980168;28;20482;-71
2021/10/12 08:48:23;;;;;;;7.27;6.63;;;;;;;8.65;100.00;98352.03;4981036;28;20216;-73
2021/10/12 08:50:52;;;;;;;7.77;6.97;;;;;;;8.77;100.00;98352.69;4947546;28;20769;-71
2021/10/12 08:53:20;;;;;;;8.97;7.60;;;;;;;8.83;100.00;98352.13;4978014;28;20776;-76
2021/10/12 08:55:48;;;;;;;7.17;6.57;;;;;;;8.70;100.00;98354.22;4976512;28;20898;-74
2021/10/12 08:58:16;;;;;;;7.97;7.17;;;;;;;8.73;100.00;98353.97;4980453;28;20205;-69
2021/10/12 09:00:44;;;;;;;7.13;6.37;;;;;;;8.76;100.00;98342.25;4977281;28;20358;-77
2021/10/12 09:03:28;;;;;;;7.67;6.90;;;;;;;8.73;100.00;98339.91;4978066;28;20701;-73
2021/10/12 09:05:59;;;;;;;7.20;6.50;;;;;;;8.75;100.00;98341.44;4948339;28;20561;-71
2021/10/12 09:08:29;;;;;;;8.27;5.93;;;;;;;8.77;100.00;98344.78;4977711;28;20238;-75
2021/10/12 09:10:59;;;;;;;6.40;5.90;;;;;;;8.92;100.00;98326.63;4979884;28;20244;-74
2021/10/12 09:13:27;;;;;;;6.73;6.07;;;;;;;8.89;100.00;98323.44;4970098;28;20575;-74
2021/10/12 09:16:07;;;;;;;6.50;5.60;;;;;;;8.68;100.00;98333.25;4974506;28;20217;-73
2021/10/12 09:18:54;;;;;;;7.00;6.50;;;;;;;8.77;100.00;98315.69;4969093;28;20219;-73
2021/10/12 09:21:25;;;;;;;6.27;5.77;;;;;;;9.04;100.00;98313.22;4972936;28;20217;-75
2021/10/12 09:24:02;;;;;;;8.70;5.63;;;;;;;9.19;100.00;98316.22;4960493;28;20511;-68
2021/10/12 09:26:33;;;;;;;4.47;4.07;;;;;;;9.01;100.00;98313.53;4979186;28;20224;-73
2021/10/12 09:29:06;;;;;;;4.90;4.50;;;;;;;8.87;100.00;98298.97;4980651;28;20197;-73
2021/10/12 09:31:36;;;;;;;3.50;3.20;;;;;;;9.23;100.00;98297.25;4972306;28;20618;-73
2021/10/12 09:34:07;;;;;;;3.90;3.47;;;;;;;9.15;100.00;98291.06;4976231;28;20296;-72
2021/10/12 09:36:38;;;;;;;4.00;3.70;;;;;;;9.48;100.00;98291.41;4976815;28;20213;-72
2021/10/12 09:39:08;;;;;;;4.10;3.60;;;;;;;9.94;100.00;98291.31;4947037;28;20220;-71
2021/10/12 09:41:36;;;;;;;2.90;2.70;;;;;;;9.80;100.00;98290.03;4960222;28;20228;-71
2021/10/12 09:44:12;;;;;;;2.60;2.40;;;;;;;9.96;100.00;98276.13;4974395;28;20237;-73
2021/10/12 09:46:42;;;;;;;3.50;2.77;;;;;;;9.82;100.00;98286.28;4980696;28;20201;-68
2021/10/12 09:49:11;;;;;;;3.83;3.33;;;;;;;9.83;100.00;98276.50;4963694;28;20309;-70
2021/10/12 09:51:44;;;;;;;2.77;2.57;;;;;;;9.87;100.00;98269.94;4971980;28;20206;-70
2021/10/12 09:54:23;;;;;;;3.87;3.53;;;;;;;9.96;100.00;98273.47;4937137;28;20430;-70
2021/10/12 09:56:52;;;;;;;3.87;2.93;;;;;;;10.09;100.00;98265.13;4974907;28;20214;-75
2021/10/12 09:59:20;;;;;;;2.20;2.07;;;;;;;9.98;100.00;98263.56;4974319;28;20209;-71
2021/10/12 10:01:48;;;;;;;2.43;2.23;;;;;;;10.10;100.00;98257.06;4973782;28;20293;-72
2021/10/12 10:04:19;;;;;;;4.20;2.93;;;;;;;9.75;100.00;98253.47;4961892;28;20268;-71
2021/10/12 10:06:50;;;;;;;3.33;2.90;;;;;;;9.87;100.00;98256.72;4977725;28;20232;-69
2021/10/12 10:09:21;;;;;;;3.73;2.93;;;;;;;9.91;100.00;98259.88;4939109;28;20210;-69
2021/10/12 10:11:49;;;;;;;4.70;2.93;;;;;;;9.97;100.00;98251.31;4937146;28;20210;-72
2021/10/12 10:14:19;;;;;;;2.97;2.53;;;;;;;9.96;100.00;98255.78;4962772;28;20335;-70
2021/10/12 10:16:50;;;;;;;3.33;3.03;;;;;;;9.78;100.00;98247.88;4973779;28;20400;-71
2021/10/12 10:19:20;;;;;;;3.27;2.50;;;;;;;9.69;100.00;98254.91;4974827;28;20213;-71
2021/10/12 10:21:51;;;;;;;4.10;2.97;;;;;;;9.74;100.00;98240.38;4969455;28;20210;-71
2021/10/12 10:24:39;;;;;;;2.40;2.30;;;;;;;9.92;100.00;98245.66;4973665;28;20714;-71
2021/10/12 10:27:08;;;;;;;3.40;2.63;;;;;;;9.89;100.00;98235.38;4940234;28;20217;-72
2021/10/12 10:29:38;;;;;;;5.60;2.87;;;;;;;9.97;100.00;98228.31;4975535;28;20582;-69
2021/10/12 10:32:23;;;;;;;2.43;2.23;;;;;;;9.79;100.00;98232.81;4976019;28;20221;-67
2021/10/12 10:35:00;;;;;;;4.63;2.40;;;;;;;9.95;100.00;98217.06;4976381;28;20225;-70
2021/10/12 10:37:33;;;;;;;2.73;2.53;;;;;;;9.95;100.00;98221.50;4975039;28;20725;-69
2021/10/12 10:40:08;;;;;;;2.90;2.50;;;;;;;10.20;100.00;98221.69;4971127;28;20206;-69
2021/10/12 10:42:58;;;;;;;3.13;2.93;;;;;;;9.98;100.00;98222.03;4944337;28;20205;-71
2021/10/12 10:45:56;;;;;;;3.00;2.70;;;;;;;10.03;100.00;98212.81;4974610;28;20255;-71
2021/10/12 10:48:24;;;;;;;2.83;2.67;;;;;;;9.94;100.00;98218.03;4971893;28;20222;-72
2021/10/12 10:51:22;;;;;;;3.60;3.30;;;;;;;9.80;100.00;98208.00;4964030;28;20202;-72
2021/10/12 10:53:52;;;;;;;3.20;2.97;;;;;;;9.82;100.00;98209.50;4977174;28;20233;-70
2021/10/12 10:56:22;;;;;;;3.33;3.07;;;;;;;9.77;100.00;98201.22;4974203;28;20600;-71
2021/10/12 10:59:23;;;;;;;5.50;3.63;;;;;;;9.93;100.00;98204.94;4942896;28;20210;-71
2021/10/12 11:01:55;;;;;;;3.80;3.50;;;;;;;9.74;100.00;98187.44;4975651;28;20213;-70
2021/10/12 11:04:41;;;;;;;3.00;2.77;;;;;;;9.77;100.00;98189.78;4971717;28;20249;-71
2021/10/12 11:07:09;;;;;;;3.90;3.63;;;;;;;9.68;100.00;98180.97;4962348;28;20916;-70
2021/10/12 11:09:51;;;;;;;3.97;3.57;;;;;;;9.64;100.00;98182.22;4975056;28;20214;-72
2021/10/12 11:12:34;;;;;;;4.67;4.17;;;;;;;9.59;100.00;98174.78;4940662;28;20834;-71
2021/10/12 11:15:09;;;;;;;3.23;3.00;;;;;;;9.88;100.00;98170.16;4970715;28;20408;-71
2021/10/12 11:17:37;;;;;;;3.57;3.30;;;;;;;9.74;100.00;98169.75;4975467;28;20216;-71
2021/10/12 11:20:07;;;;;;;2.90;2.70;;;;;;;9.83;100.00;98170.63;4973088;28;20221;-71
2021/10/12 11:22:40;;;;;;;4.20;3.60;;;;;;;9.97;100.00;98161.28;4963466;28;20472;-70
2021/10/12 11:25:10;;;;;;;5.57;3.60;;;;;;;10.08;100.00;98161.06;4970747;28;20795;-72
2021/10/12 11:27:42;;;;;;;3.27;3.07;;;;;;;10.17;100.00;98153.16;4973405;28;20214;-70
2021/10/12 11:30:12;;;;;;;4.30;3.50;;;;;;;10.32;100.00;98146.25;4933584;28;20898;-72
2021/10/12 11:32:40;;;;;;;3.00;2.80;;;;;;;10.17;100.00;98145.19;4968914;28;20206;-73
2021/10/12 11:35:10;;;;;;;4.33;3.93;;;;;;;10.21;100.00;98135.94;4942607;28;20591;-72